Time;durP1;ratioP1;P1;durP2;ratioP2;P2;SDS_P1;SDS_P2;PMS_P1;PMS_P2;Temp;Humidity;BMP_temperature;BMP_pressure;BME280_temperature;BME280_humidity;BME280_pressure;Samples;Min_cycle;Max_cycle;Signal;HPM_P1;HPM_P2
2021/10/04 00:02:24;;;;;;;2.38;2.10;;;17.10;99.90;;;;;;5072466;28;20203;-67
2021/10/04 00:04:52;;;;;;;2.45;2.25;;;17.20;99.90;;;;;;5069826;28;20258;-67
2021/10/04 00:07:22;;;;;;;2.28;2.08;;;17.10;99.90;;;;;;5052630;28;20217;-68
2021/10/04 00:09:50;;;;;;;2.33;2.05;;;17.20;99.90;;;;;;5052504;28;20205;-67
2021/10/04 00:12:18;;;;;;;2.47;2.28;;;17.20;99.90;;;;;;5052382;28;20205;-67
2021/10/04 00:14:46;;;;;;;2.30;2.10;;;17.20;99.90;;;;;;5052579;28;20202;-67
2021/10/04 00:17:14;;;;;;;2.28;1.95;;;17.20;99.90;;;;;;5052454;28;20620;-67
2021/10/04 00:19:41;;;;;;;3.67;2.15;;;17.30;99.90;;;;;;5052526;28;20284;-67
2021/10/04 00:22:10;;;;;;;2.00;1.90;;;17.30;99.90;;;;;;5052411;28;20212;-66
2021/10/04 00:24:39;;;;;;;3.58;2.30;;;17.30;99.90;;;;;;5052580;28;20197;-66
2021/10/04 00:27:07;;;;;;;2.00;1.90;;;17.20;99.90;;;;;;5052350;28;20201;-68
2021/10/04 00:29:34;;;;;;;2.95;2.10;;;17.20;99.90;;;;;;5052466;28;20220;-67
2021/10/04 00:32:02;;;;;;;2.10;1.98;;;17.20;99.90;;;;;;5052599;28;20292;-66
2021/10/04 00:34:30;;;;;;;2.40;2.20;;;17.20;99.90;;;;;;5051732;28;20235;-66
2021/10/04 00:36:58;;;;;;;3.53;2.45;;;17.10;99.90;;;;;;5051921;28;20641;-67
2021/10/04 00:39:26;;;;;;;3.47;2.05;;;17.20;99.90;;;;;;5062819;28;20283;-66
2021/10/04 00:41:55;;;;;;;2.25;2.05;;;17.10;99.90;;;;;;5073966;28;20236;-68
2021/10/04 00:44:23;;;;;;;2.33;2.13;;;17.10;99.90;;;;;;5075906;28;20203;-67
2021/10/04 00:46:51;;;;;;;2.60;2.20;;;17.10;99.90;;;;;;5076033;28;20320;-67
2021/10/04 00:49:19;;;;;;;2.50;2.10;;;17.10;99.90;;;;;;5075887;28;20550;-67
2021/10/04 00:51:47;;;;;;;3.03;1.90;;;17.10;99.90;;;;;;5075736;28;20291;-66
2021/10/04 00:54:15;;;;;;;2.75;2.10;;;17.00;99.90;;;;;;5075952;28;20726;-67
2021/10/04 00:56:43;;;;;;;3.45;2.40;;;17.00;99.90;;;;;;5076091;28;20661;-67
2021/10/04 00:59:13;;;;;;;1.92;1.73;;;17.00;99.90;;;;;;5075967;28;20207;-68
2021/10/04 01:01:41;;;;;;;2.08;1.85;;;17.00;99.90;;;;;;5076020;28;20314;-67
2021/10/04 01:04:09;;;;;;;2.05;1.85;;;17.00;99.90;;;;;;5075811;28;20228;-67
2021/10/04 01:06:37;;;;;;;1.70;1.60;;;16.90;99.90;;;;;;5058263;28;20210;-66
2021/10/04 01:09:04;;;;;;;2.03;1.83;;;16.90;99.90;;;;;;5055750;28;20215;-66
2021/10/04 01:11:33;;;;;;;2.40;1.85;;;16.90;99.90;;;;;;5055656;28;20204;-67
2021/10/04 01:14:01;;;;;;;1.95;1.75;;;16.90;99.90;;;;;;5055266;28;20229;-66
2021/10/04 01:16:30;;;;;;;1.88;1.77;;;16.80;99.90;;;;;;5055709;28;20201;-67
2021/10/04 01:18:58;;;;;;;2.25;1.80;;;16.70;99.90;;;;;;5055471;28;20202;-69
2021/10/04 01:21:27;;;;;;;1.70;1.60;;;16.60;99.90;;;;;;5055505;28;20203;-67
2021/10/04 01:23:55;;;;;;;2.47;1.90;;;16.70;99.90;;;;;;5055110;28;20546;-67
2021/10/04 01:26:24;;;;;;;2.22;2.00;;;16.60;99.90;;;;;;5055286;28;20198;-69
2021/10/04 01:28:52;;;;;;;2.22;2.03;;;16.50;99.90;;;;;;5055248;28;20205;-67
2021/10/04 01:31:22;;;;;;;3.10;1.90;;;16.50;99.90;;;;;;5055249;28;20208;-67
2021/10/04 01:33:50;;;;;;;1.88;1.67;;;16.40;99.90;;;;;;5055030;28;20696;-67
2021/10/04 01:36:20;;;;;;;2.75;1.95;;;16.30;99.90;;;;;;5055114;28;20211;-67
2021/10/04 01:38:49;;;;;;;2.85;2.03;;;16.30;99.90;;;;;;5054922;28;20752;-65
2021/10/04 01:41:17;;;;;;;1.98;1.85;;;16.20;99.90;;;;;;5055119;28;20206;-67
2021/10/04 01:43:45;;;;;;;2.28;1.85;;;16.20;99.90;;;;;;5054946;28;20207;-66
2021/10/04 01:46:13;;;;;;;2.90;1.80;;;16.20;99.90;;;;;;5054839;28;20206;-67
2021/10/04 01:48:41;;;;;;;2.28;1.98;;;16.20;99.90;;;;;;5054864;28;20275;-66
2021/10/04 01:51:09;;;;;;;2.08;1.88;;;16.20;99.90;;;;;;5054635;28;20289;-67
2021/10/04 01:53:36;;;;;;;2.00;1.90;;;16.20;99.90;;;;;;5054119;28;20685;-67
2021/10/04 01:56:06;;;;;;;2.88;1.98;;;16.20;99.90;;;;;;5054794;28;20255;-66
2021/10/04 01:58:34;;;;;;;1.73;1.63;;;16.10;99.90;;;;;;5054350;28;20233;-68
2021/10/04 02:01:04;;;;;;;2.05;1.80;;;16.10;99.90;;;;;;5054717;28;20292;-67
2021/10/04 02:03:32;;;;;;;2.58;2.08;;;16.10;99.90;;;;;;5054686;28;20213;-66
2021/10/04 02:06:00;;;;;;;2.00;1.90;;;16.10;99.90;;;;;;5054438;28;20724;-67
2021/10/04 02:08:27;;;;;;;2.08;1.88;;;16.10;99.90;;;;;;5054602;28;20284;-66
2021/10/04 02:10:55;;;;;;;2.28;2.08;;;16.10;99.90;;;;;;5054342;28;20736;-66
2021/10/04 02:13:25;;;;;;;2.28;1.80;;;16.00;99.90;;;;;;5054344;28;20201;-68
2021/10/04 02:15:53;;;;;;;2.45;1.80;;;16.10;99.90;;;;;;5054257;28;20201;-66
2021/10/04 02:18:21;;;;;;;2.30;2.10;;;16.00;99.90;;;;;;5054063;28;20260;-66
2021/10/04 02:20:49;;;;;;;2.72;2.08;;;16.00;99.90;;;;;;5054195;28;20236;-67
2021/10/04 02:23:16;;;;;;;2.50;2.30;;;16.00;99.90;;;;;;5054579;28;20208;-68
2021/10/04 02:25:46;;;;;;;2.97;2.45;;;16.00;99.90;;;;;;5054048;28;20699;-66
2021/10/04 02:28:16;;;;;;;3.38;3.08;;;16.10;99.90;;;;;;5054084;28;20298;-66
2021/10/04 02:30:45;;;;;;;3.80;3.50;;;16.10;99.90;;;;;;5053855;28;20664;-67
2021/10/04 02:33:13;;;;;;;3.58;3.10;;;16.00;99.90;;;;;;5054208;28;20626;-67
2021/10/04 02:35:41;;;;;;;3.55;3.25;;;16.00;99.90;;;;;;5053938;28;20240;-66
2021/10/04 02:38:11;;;;;;;3.10;2.80;;;15.90;99.90;;;;;;5053601;28;20642;-66
2021/10/04 02:40:40;;;;;;;3.58;3.22;;;15.90;99.90;;;;;;5054304;28;20201;-67
2021/10/04 02:43:09;;;;;;;3.70;2.85;;;15.90;99.90;;;;;;5053872;28;20288;-67
2021/10/04 02:45:37;;;;;;;3.70;3.40;;;15.90;99.90;;;;;;5053929;28;20197;-66
2021/10/04 02:48:06;;;;;;;3.65;3.25;;;15.90;99.90;;;;;;5069239;28;20264;-67
2021/10/04 02:50:34;;;;;;;3.60;3.08;;;15.80;99.90;;;;;;5073590;28;20209;-67
2021/10/04 02:53:02;;;;;;;4.47;3.83;;;15.80;99.90;;;;;;5073808;28;20250;-67
2021/10/04 02:55:30;;;;;;;4.28;3.88;;;15.70;99.90;;;;;;5073655;28;20219;-66
2021/10/04 02:57:58;;;;;;;4.20;3.80;;;15.60;99.90;;;;;;5073682;28;20292;-67
2021/10/04 03:00:32;;;;;;;3.92;3.53;;;15.70;99.90;;;;;;5073418;28;20578;-67
2021/10/04 03:03:00;;;;;;;4.00;3.60;;;15.60;99.90;;;;;;5073655;28;20201;-66
2021/10/04 03:05:30;;;;;;;4.10;3.70;;;15.50;99.90;;;;;;5072189;28;20566;-67
2021/10/04 03:08:00;;;;;;;3.88;3.50;;;15.50;99.90;;;;;;5073637;28;20577;-67
2021/10/04 03:10:28;;;;;;;4.10;3.70;;;15.50;99.90;;;;;;5073215;28;20205;-66
2021/10/04 03:12:56;;;;;;;4.45;3.83;;;15.50;99.90;;;;;;5073218;28;20284;-67
2021/10/04 03:15:24;;;;;;;4.20;3.80;;;15.50;99.90;;;;;;5073074;28;20227;-67
2021/10/04 03:17:52;;;;;;;4.15;3.75;;;15.50;99.90;;;;;;5073364;28;20205;-66
2021/10/04 03:20:20;;;;;;;4.95;4.25;;;15.50;99.90;;;;;;5073251;28;20209;-65
2021/10/04 03:22:49;;;;;;;3.90;3.50;;;15.50;99.90;;;;;;5073036;28;20652;-67
2021/10/04 03:25:17;;;;;;;4.15;3.75;;;15.60;99.90;;;;;;5073620;28;20291;-66
2021/10/04 03:27:45;;;;;;;4.25;3.85;;;15.60;99.90;;;;;;5073357;28;20284;-66
2021/10/04 03:30:13;;;;;;;4.65;3.80;;;15.60;99.90;;;;;;5073337;28;20200;-67
2021/10/04 03:32:41;;;;;;;4.30;3.85;;;15.50;99.90;;;;;;5073079;28;20678;-67
2021/10/04 03:35:09;;;;;;;4.82;3.78;;;15.50;99.90;;;;;;5072793;28;20279;-66
2021/10/04 03:37:38;;;;;;;4.07;3.67;;;15.50;99.90;;;;;;5072829;28;20203;-66
2021/10/04 03:40:08;;;;;;;4.72;3.63;;;15.50;99.90;;;;;;5073128;28;20222;-65
2021/10/04 03:42:36;;;;;;;4.65;3.65;;;15.50;99.90;;;;;;5072898;28;20272;-66
2021/10/04 03:45:06;;;;;;;4.40;3.92;;;15.50;99.90;;;;;;5073275;28;20304;-67
2021/10/04 03:47:35;;;;;;;4.80;4.40;;;15.50;99.90;;;;;;5072802;28;20287;-66
2021/10/04 03:50:05;;;;;;;4.55;4.15;;;15.50;99.90;;;;;;5072479;28;20204;-68
2021/10/04 03:52:33;;;;;;;4.25;3.72;;;15.50;99.90;;;;;;5072839;28;20225;-66
2021/10/04 03:55:01;;;;;;;4.53;4.07;;;15.50;99.90;;;;;;5072732;28;20307;-66
2021/10/04 03:57:30;;;;;;;4.55;4.15;;;15.50;99.90;;;;;;5072464;28;20200;-66
2021/10/04 03:59:58;;;;;;;4.60;4.13;;;15.50;99.90;;;;;;5072765;28;20232;-67
2021/10/04 04:02:26;;;;;;;5.05;4.55;;;15.50;99.90;;;;;;5072957;28;20200;-65
2021/10/04 04:04:54;;;;;;;5.10;4.60;;;15.50;99.90;;;;;;5072754;28;20200;-66
2021/10/04 04:07:22;;;;;;;5.03;4.53;;;15.40;99.90;;;;;;5073019;28;20227;-66
2021/10/04 04:09:50;;;;;;;5.45;4.68;;;15.40;99.90;;;;;;5072923;28;20207;-66
2021/10/04 04:12:17;;;;;;;5.30;4.80;;;15.40;99.90;;;;;;5072551;28;20296;-67
2021/10/04 04:14:47;;;;;;;5.72;4.80;;;15.40;99.90;;;;;;5072647;28;20256;-67
2021/10/04 04:17:14;;;;;;;4.97;4.43;;;15.40;99.90;;;;;;5075986;28;20243;-67
2021/10/04 04:19:42;;;;;;;5.40;4.90;;;15.40;99.90;;;;;;5077142;28;20291;-68
2021/10/04 04:22:10;;;;;;;4.63;4.20;;;15.40;99.90;;;;;;5077047;28;20201;-68
2021/10/04 04:24:38;;;;;;;6.55;4.90;;;15.50;99.90;;;;;;5076817;28;20560;-66
2021/10/04 04:27:07;;;;;;;5.50;4.95;;;15.40;99.90;;;;;;5076510;28;20288;-67
2021/10/04 04:29:36;;;;;;;5.72;4.45;;;15.40;99.90;;;;;;5076645;28;20207;-67
2021/10/04 04:32:06;;;;;;;5.18;4.45;;;15.40;99.90;;;;;;5076516;28;20303;-67
2021/10/04 04:34:34;;;;;;;6.80;4.80;;;15.30;99.90;;;;;;5076349;28;20185;-67
2021/10/04 04:37:03;;;;;;;7.55;5.28;;;15.30;99.90;;;;;;5075967;28;20316;-67
2021/10/04 04:39:31;;;;;;;5.35;4.72;;;15.30;99.90;;;;;;5076294;28;20283;-67
2021/10/04 04:41:59;;;;;;;4.90;4.32;;;15.30;99.90;;;;;;5076273;28;20295;-67
2021/10/04 04:44:27;;;;;;;5.95;4.85;;;15.30;99.90;;;;;;5076026;28;20794;-66
2021/10/04 04:46:55;;;;;;;6.38;4.65;;;15.30;99.90;;;;;;5075984;28;20618;-66
2021/10/04 04:49:26;;;;;;;5.45;4.90;;;15.30;99.90;;;;;;5076148;28;20276;-66
2021/10/04 04:51:54;;;;;;;6.60;5.15;;;15.20;99.90;;;;;;5075620;28;20280;-66
2021/10/04 04:54:23;;;;;;;5.80;5.15;;;15.20;99.90;;;;;;5075990;28;20200;-66
2021/10/04 04:56:54;;;;;;;7.68;6.07;;;15.20;99.90;;;;;;5075538;28;20219;-66
2021/10/04 04:59:22;;;;;;;6.57;5.05;;;15.20;99.90;;;;;;5076104;28;20595;-66
2021/10/04 05:01:50;;;;;;;5.65;4.88;;;15.20;99.90;;;;;;5076066;28;20586;-66
2021/10/04 05:04:18;;;;;;;5.10;4.60;;;15.30;99.90;;;;;;5075903;28;20200;-65
2021/10/04 05:06:48;;;;;;;5.60;5.03;;;15.20;99.90;;;;;;5075661;28;20637;-66
2021/10/04 05:09:16;;;;;;;5.10;4.22;;;15.20;99.90;;;;;;5075640;28;20217;-67
2021/10/04 05:11:44;;;;;;;3.97;3.10;;;15.10;99.90;;;;;;5074898;28;20299;-67
2021/10/04 05:14:11;;;;;;;3.20;2.90;;;15.20;99.90;;;;;;5075606;28;20211;-67
2021/10/04 05:16:39;;;;;;;2.58;2.38;;;15.20;99.90;;;;;;5075424;28;20316;-66
2021/10/04 05:19:07;;;;;;;2.33;2.13;;;15.10;99.90;;;;;;5075178;28;20205;-66
2021/10/04 05:21:35;;;;;;;3.33;2.40;;;15.00;99.90;;;;;;5075147;28;20200;-66
2021/10/04 05:24:05;;;;;;;2.70;2.03;;;15.10;99.90;;;;;;5075460;28;20232;-66
2021/10/04 05:26:33;;;;;;;2.83;2.05;;;15.00;99.90;;;;;;5075053;28;20710;-65
2021/10/04 05:29:01;;;;;;;3.38;2.38;;;14.90;99.90;;;;;;5074351;28;20295;-66
2021/10/04 05:31:29;;;;;;;2.65;1.83;;;14.80;99.90;;;;;;5075448;28;20201;-67
2021/10/04 05:33:57;;;;;;;2.28;2.08;;;14.80;99.90;;;;;;5075236;28;20536;-67
2021/10/04 05:36:25;;;;;;;2.33;2.13;;;14.80;99.90;;;;;;5075209;28;20242;-66
2021/10/04 05:38:57;;;;;;;3.30;2.60;;;14.80;99.90;;;;;;5075147;28;20192;-66
2021/10/04 05:41:26;;;;;;;2.30;2.00;;;14.70;99.90;;;;;;5074909;28;20543;-66
2021/10/04 05:43:54;;;;;;;3.63;2.28;;;14.70;99.90;;;;;;5075300;28;20540;-67
2021/10/04 05:46:22;;;;;;;3.20;2.55;;;14.70;99.90;;;;;;5074729;28;20827;-66
2021/10/04 05:48:49;;;;;;;3.40;2.25;;;14.70;99.90;;;;;;5075122;28;20189;-66
2021/10/04 05:51:19;;;;;;;3.40;2.20;;;14.70;99.90;;;;;;5074878;28;20200;-65
2021/10/04 05:53:47;;;;;;;2.35;2.00;;;14.70;99.90;;;;;;5074923;28;20543;-66
2021/10/04 05:56:15;;;;;;;2.17;1.98;;;14.70;99.90;;;;;;5074575;28;20221;-67
2021/10/04 05:58:45;;;;;;;3.47;2.30;;;14.70;99.90;;;;;;5074532;28;20204;-65
2021/10/04 06:01:13;;;;;;;2.83;2.45;;;14.70;99.90;;;;;;5074454;28;20204;-66
2021/10/04 06:03:43;;;;;;;2.78;2.53;;;14.70;99.90;;;;;;5074468;28;20612;-66
2021/10/04 06:06:10;;;;;;;2.88;2.47;;;14.80;99.90;;;;;;5074324;28;20236;-66
2021/10/04 06:08:38;;;;;;;3.57;2.33;;;14.90;99.90;;;;;;5074483;28;20738;-67
2021/10/04 06:11:07;;;;;;;2.60;2.40;;;14.90;99.90;;;;;;5074578;28;20211;-66
2021/10/04 06:13:34;;;;;;;3.05;2.47;;;14.90;99.90;;;;;;5074639;28;20201;-66
2021/10/04 06:16:04;;;;;;;2.97;2.40;;;14.90;99.90;;;;;;5074524;28;20791;-66
2021/10/04 06:18:32;;;;;;;2.97;2.65;;;14.90;99.90;;;;;;5074389;28;20663;-67
2021/10/04 06:21:00;;;;;;;4.05;2.88;;;14.90;99.90;;;;;;5073756;28;20243;-67
2021/10/04 06:23:28;;;;;;;4.15;2.85;;;14.80;99.90;;;;;;5074106;28;20207;-66
2021/10/04 06:25:56;;;;;;;3.28;2.97;;;14.80;99.90;;;;;;5073969;28;20826;-65
2021/10/04 06:28:24;;;;;;;4.22;3.17;;;14.90;99.90;;;;;;5074076;28;20200;-66
2021/10/04 06:30:52;;;;;;;3.53;3.05;;;14.90;99.90;;;;;;5073771;28;20287;-65
2021/10/04 06:33:21;;;;;;;4.32;3.55;;;14.90;99.90;;;;;;5074037;28;20201;-66
2021/10/04 06:35:49;;;;;;;4.55;3.20;;;14.90;99.90;;;;;;5073542;28;20220;-66
2021/10/04 06:38:16;;;;;;;4.15;3.20;;;14.90;99.90;;;;;;5073661;28;20269;-67
2021/10/04 06:40:44;;;;;;;4.95;3.40;;;14.90;99.90;;;;;;5073590;28;20207;-66
2021/10/04 06:43:12;;;;;;;3.65;3.33;;;14.90;99.90;;;;;;5073721;28;20287;-66
2021/10/04 06:45:40;;;;;;;4.25;3.53;;;14.90;99.90;;;;;;5073556;28;20292;-67
2021/10/04 06:48:08;;;;;;;3.33;3.03;;;14.80;99.90;;;;;;5073796;28;20320;-66
2021/10/04 06:50:37;;;;;;;3.83;3.22;;;14.90;99.90;;;;;;5073610;28;20196;-66
2021/10/04 06:53:05;;;;;;;3.85;3.40;;;14.90;99.90;;;;;;5073648;28;20291;-66
2021/10/04 06:55:33;;;;;;;3.75;3.17;;;14.90;99.90;;;;;;5073488;28;20323;-66
2021/10/04 06:58:01;;;;;;;4.15;2.90;;;14.90;99.90;;;;;;5073362;28;20232;-66
2021/10/04 07:00:29;;;;;;;3.22;2.47;;;14.90;99.90;;;;;;5073141;28;20240;-66
2021/10/04 07:02:58;;;;;;;3.92;3.08;;;14.90;99.90;;;;;;5073396;28;20197;-67
2021/10/04 07:05:26;;;;;;;3.20;2.90;;;15.00;99.90;;;;;;5073054;28;20211;-67
2021/10/04 07:07:56;;;;;;;3.30;2.60;;;15.00;99.90;;;;;;5073616;28;20250;-67
2021/10/04 07:10:24;;;;;;;2.70;2.50;;;15.10;99.90;;;;;;5073367;28;20257;-67
2021/10/04 07:12:52;;;;;;;3.03;2.72;;;15.10;99.90;;;;;;5072892;28;20207;-67
2021/10/04 07:15:20;;;;;;;3.28;2.80;;;15.10;99.90;;;;;;5073301;28;20215;-65
2021/10/04 07:17:48;;;;;;;3.03;2.72;;;15.00;99.90;;;;;;5073103;28;20670;-68
2021/10/04 07:20:16;;;;;;;3.30;3.00;;;15.00;99.90;;;;;;5073133;28;20189;-66
2021/10/04 07:22:44;;;;;;;3.40;3.03;;;15.00;99.90;;;;;;5073490;28;20288;-68
2021/10/04 07:25:13;;;;;;;3.65;2.97;;;15.00;99.90;;;;;;5073155;28;20227;-67
2021/10/04 07:27:42;;;;;;;4.45;3.30;;;15.00;99.90;;;;;;5072558;28;20648;-67
2021/10/04 07:30:11;;;;;;;3.90;3.47;;;15.00;99.90;;;;;;5072923;28;20236;-65
2021/10/04 07:32:39;;;;;;;4.85;3.20;;;15.00;99.90;;;;;;5073059;28;20243;-65
2021/10/04 07:35:07;;;;;;;4.25;3.28;;;15.00;99.90;;;;;;5073079;28;20209;-63
2021/10/04 07:37:35;;;;;;;3.85;3.45;;;15.00;99.90;;;;;;5072527;28;20260;-68
2021/10/04 07:40:07;;;;;;;5.15;3.20;;;15.00;99.90;;;;;;5072993;28;20219;-68
2021/10/04 07:42:36;;;;;;;3.90;3.20;;;15.10;99.90;;;;;;5073102;28;20211;-68
2021/10/04 07:45:05;;;;;;;7.88;3.45;;;15.10;99.90;;;;;;5072622;28;20797;-67
2021/10/04 07:47:33;;;;;;;3.63;3.22;;;15.10;99.90;;;;;;5072478;28;20662;-69
2021/10/04 07:50:01;;;;;;;4.80;3.58;;;15.20;99.90;;;;;;5073158;28;20311;-70
2021/10/04 07:52:29;;;;;;;5.25;3.63;;;15.20;99.90;;;;;;5072021;28;20305;-68
2021/10/04 07:54:58;;;;;;;4.28;3.13;;;15.30;99.90;;;;;;5072168;28;20291;-68
2021/10/04 07:57:26;;;;;;;5.10;3.22;;;15.30;99.90;;;;;;5073271;28;20690;-67
2021/10/04 07:59:55;;;;;;;3.67;3.00;;;15.40;99.90;;;;;;5072550;28;20203;-68
2021/10/04 08:02:23;;;;;;;4.57;3.45;;;15.40;99.90;;;;;;5072408;28;20201;-69
2021/10/04 08:04:51;;;;;;;4.82;3.25;;;15.50;99.90;;;;;;5072081;28;20543;-69
2021/10/04 08:07:19;;;;;;;3.47;2.75;;;15.50;99.90;;;;;;5072334;28;20642;-68
2021/10/04 08:09:47;;;;;;;4.63;3.08;;;15.60;99.90;;;;;;5072473;28;20318;-68
2021/10/04 08:12:15;;;;;;;3.85;3.47;;;15.60;99.90;;;;;;5072517;28;20337;-70
2021/10/04 08:14:43;;;;;;;4.65;3.22;;;15.70;99.90;;;;;;5072533;28;20228;-68
2021/10/04 08:17:12;;;;;;;4.93;3.75;;;15.70;99.90;;;;;;5072125;28;20239;-68
2021/10/04 08:19:39;;;;;;;4.32;3.38;;;15.80;99.90;;;;;;5072525;28;20226;-67
2021/10/04 08:22:07;;;;;;;3.85;3.55;;;15.90;99.90;;;;;;5072305;28;20207;-68
2021/10/04 08:24:35;;;;;;;6.35;3.60;;;16.00;99.90;;;;;;5072455;28;20295;-68
2021/10/04 08:27:03;;;;;;;4.28;3.20;;;15.90;99.90;;;;;;5072095;28;20292;-68
2021/10/04 08:29:31;;;;;;;3.92;3.42;;;15.90;99.90;;;;;;5072144;28;20620;-68
2021/10/04 08:31:59;;;;;;;5.32;3.58;;;15.90;99.90;;;;;;5072445;28;20201;-67
2021/10/04 08:34:28;;;;;;;3.47;3.17;;;15.90;99.90;;;;;;5072354;28;20201;-68
2021/10/04 08:36:56;;;;;;;3.65;2.90;;;15.80;99.90;;;;;;5072296;28;20205;-67
2021/10/04 08:39:24;;;;;;;4.80;3.15;;;15.80;99.90;;;;;;5072021;28;20686;-67
2021/10/04 08:41:53;;;;;;;4.43;2.88;;;15.70;99.90;;;;;;5072149;28;20207;-69
2021/10/04 08:44:21;;;;;;;3.92;2.72;;;15.60;99.90;;;;;;5072203;28;20223;-68
2021/10/04 08:46:49;;;;;;;6.45;3.55;;;15.60;99.90;;;;;;5071978;28;20235;-67
2021/10/04 08:49:19;;;;;;;3.70;3.30;;;15.50;99.90;;;;;;5072411;28;20205;-68
2021/10/04 08:51:50;;;;;;;3.30;3.00;;;15.50;99.90;;;;;;5071941;28;20289;-67
2021/10/04 08:54:24;;;;;;;5.03;3.00;;;15.50;99.90;;;;;;5071803;28;20650;-69
2021/10/04 08:56:53;;;;;;;5.28;3.10;;;15.60;99.90;;;;;;5071844;28;20202;-67
2021/10/04 08:59:21;;;;;;;4.95;2.85;;;15.60;99.90;;;;;;5071471;28;20287;-68
2021/10/04 09:01:49;;;;;;;4.38;2.42;;;15.60;99.90;;;;;;5053453;28;20198;-68
2021/10/04 09:04:19;;;;;;;4.03;1.92;;;15.60;99.90;;;;;;5054978;28;20201;-69
2021/10/04 09:06:49;;;;;;;5.18;2.50;;;15.50;99.90;;;;;;5074543;28;20204;-67
2021/10/04 09:09:17;;;;;;;2.38;1.77;;;15.60;99.90;;;;;;5075363;28;20279;-68
2021/10/04 09:11:48;;;;;;;1.52;1.40;;;15.60;99.90;;;;;;5075221;28;20204;-67
2021/10/04 09:14:28;;;;;;;3.65;1.70;;;15.50;99.90;;;;;;5075417;28;20196;-67
2021/10/04 09:16:59;;;;;;;2.20;1.70;;;15.50;99.90;;;;;;5075432;28;20247;-69
2021/10/04 09:19:30;;;;;;;2.05;1.60;;;15.50;99.90;;;;;;5075263;28;20304;-67
2021/10/04 09:22:11;;;;;;;1.65;1.52;;;15.50;99.90;;;;;;5075296;28;20203;-68
2021/10/04 09:24:41;;;;;;;2.58;1.80;;;15.50;99.90;;;;;;5078092;28;20188;-68
2021/10/04 09:27:27;;;;;;;3.47;1.65;;;15.40;99.90;;;;;;5095313;28;20275;-68
2021/10/04 09:29:56;;;;;;;1.52;1.38;;;15.40;99.90;;;;;;5095233;28;20707;-69
2021/10/04 09:32:27;;;;;;;1.95;1.70;;;15.30;99.90;;;;;;5095161;28;20227;-70
2021/10/04 09:35:28;;;;;;;1.70;1.60;;;15.40;99.90;;;;;;5092494;28;20299;-68
2021/10/04 09:38:16;;;;;;;2.22;1.45;;;15.30;99.90;;;;;;5074533;28;20661;-69
2021/10/04 09:40:46;;;;;;;2.50;1.90;;;15.30;99.90;;;;;;5074908;28;20207;-69
2021/10/04 09:43:25;;;;;;;2.22;1.80;;;15.30;99.90;;;;;;5074661;28;20354;-68
2021/10/04 09:46:01;;;;;;;2.50;1.80;;;15.30;99.90;;;;;;5074713;28;20181;-68
2021/10/04 09:48:29;;;;;;;2.90;2.08;;;15.30;99.90;;;;;;5074368;28;20320;-68
2021/10/04 09:50:58;;;;;;;3.80;2.33;;;15.30;99.90;;;;;;5074867;28;20232;-69
2021/10/04 09:53:27;;;;;;;3.88;2.63;;;15.30;99.90;;;;;;5074446;28;20205;-68
2021/10/04 09:55:54;;;;;;;4.50;2.78;;;15.30;99.90;;;;;;5074350;28;20668;-68
2021/10/04 09:58:30;;;;;;;3.67;2.60;;;15.30;99.90;;;;;;5074390;28;20303;-68
2021/10/04 10:01:00;;;;;;;5.07;2.95;;;15.30;99.90;;;;;;5074592;28;20213;-67
2021/10/04 10:03:35;;;;;;;3.92;2.55;;;15.40;99.90;;;;;;5074235;28;20536;-69
2021/10/04 10:06:03;;;;;;;5.95;3.17;;;15.50;99.90;;;;;;5073922;28;20570;-69
2021/10/04 10:08:32;;;;;;;5.22;3.05;;;15.40;99.90;;;;;;5074564;28;20200;-67
2021/10/04 10:11:02;;;;;;;4.70;3.13;;;15.30;99.90;;;;;;5074671;28;20204;-67
2021/10/04 10:13:30;;;;;;;4.88;3.67;;;15.30;99.90;;;;;;5074164;28;20201;-69
2021/10/04 10:16:03;;;;;;;3.80;3.20;;;15.30;99.90;;;;;;5073952;28;20201;-68
2021/10/04 10:18:39;;;;;;;5.20;3.63;;;15.30;99.90;;;;;;5074319;28;20296;-69
2021/10/04 10:21:18;;;;;;;3.55;3.17;;;15.30;99.90;;;;;;5074222;28;20238;-68
2021/10/04 10:23:50;;;;;;;6.13;3.95;;;15.30;99.90;;;;;;5074361;28;20193;-67
2021/10/04 10:26:33;;;;;;;5.40;3.95;;;15.30;99.90;;;;;;5073990;28;20213;-68
2021/10/04 10:29:26;;;;;;;6.55;4.10;;;15.20;99.90;;;;;;5074106;28;20209;-69
2021/10/04 10:32:06;;;;;;;4.97;4.05;;;15.20;99.90;;;;;;5074097;28;20187;-67
2021/10/04 10:34:48;;;;;;;5.50;4.70;;;15.20;99.90;;;;;;5074043;28;20181;-69
2021/10/04 10:37:18;;;;;;;5.22;3.63;;;15.20;99.90;;;;;;5053472;28;20661;-68
2021/10/04 10:39:53;;;;;;;5.53;4.80;;;15.20;99.90;;;;;;5053593;28;20229;-68
2021/10/04 10:42:26;;;;;;;7.00;4.78;;;15.20;99.90;;;;;;5054121;28;20217;-68
2021/10/04 10:45:13;;;;;;;5.45;3.92;;;15.20;99.90;;;;;;5053909;28;20232;-68
2021/10/04 10:48:00;;;;;;;5.50;4.70;;;15.20;99.90;;;;;;5053619;28;20229;-68
2021/10/04 10:50:34;;;;;;;5.32;4.20;;;15.20;99.90;;;;;;5053856;28;20190;-69
2021/10/04 10:53:20;;;;;;;6.03;4.88;;;15.30;99.90;;;;;;5053586;28;20203;-68
2021/10/04 10:55:55;;;;;;;6.85;5.82;;;15.20;99.90;;;;;;5053409;28;20196;-69
2021/10/04 10:58:24;;;;;;;7.20;5.90;;;15.20;99.90;;;;;;5053392;28;20211;-68
2021/10/04 11:01:20;;;;;;;6.50;5.28;;;15.10;99.90;;;;;;5053449;28;20232;-68
2021/10/04 11:03:50;;;;;;;5.53;4.53;;;15.10;99.90;;;;;;5053437;28;20574;-68
2021/10/04 11:06:19;;;;;;;6.40;5.07;;;15.20;99.90;;;;;;5067118;28;20207;-68
2021/10/04 11:09:11;;;;;;;6.05;5.25;;;15.20;99.90;;;;;;5073362;28;20291;-68
2021/10/04 11:11:42;;;;;;;5.82;4.50;;;15.40;99.90;;;;;;5073072;28;20269;-69
2021/10/04 11:14:19;;;;;;;5.88;4.95;;;15.30;99.90;;;;;;5073118;28;20283;-68
2021/10/04 11:16:59;;;;;;;5.38;4.53;;;15.40;99.90;;;;;;5073258;28;20242;-68
2021/10/04 11:19:36;;;;;;;6.18;4.40;;;15.40;99.90;;;;;;5072811;28;20296;-68
2021/10/04 11:22:21;;;;;;;6.15;4.53;;;15.20;99.90;;;;;;5072681;28;20535;-67
2021/10/04 11:24:58;;;;;;;5.88;4.28;;;15.20;99.90;;;;;;5073062;28;20212;-69
2021/10/04 11:27:27;;;;;;;6.35;4.47;;;15.20;99.90;;;;;;5071684;28;20193;-69
2021/10/04 11:30:04;;;;;;;5.13;4.60;;;15.20;99.90;;;;;;5072896;28;20291;-69
2021/10/04 11:32:32;;;;;;;6.75;4.30;;;15.20;99.90;;;;;;5072921;28;20180;-69
2021/10/04 11:35:12;;;;;;;6.32;4.75;;;15.20;99.90;;;;;;5072455;28;20295;-70
2021/10/04 11:37:39;;;;;;;4.15;3.70;;;15.30;99.90;;;;;;5072884;28;20275;-69
2021/10/04 11:40:08;;;;;;;4.82;3.90;;;15.30;99.90;;;;;;5072649;28;20221;-67
2021/10/04 11:42:38;;;;;;;3.92;2.30;;;15.40;99.90;;;;;;5072361;28;20201;-69
2021/10/04 11:45:10;;;;;;;2.40;1.70;;;15.40;99.90;;;;;;5072425;28;20201;-68
2021/10/04 11:47:41;;;;;;;2.42;1.30;;;15.30;99.90;;;;;;5072110;28;20323;-68
2021/10/04 11:50:15;;;;;;;1.50;1.20;;;15.20;99.90;;;;;;5072524;28;20204;-69
2021/10/04 11:52:43;;;;;;;2.03;0.98;;;15.20;99.90;;;;;;5072512;28;20275;-69
2021/10/04 11:55:11;;;;;;;3.03;1.00;;;15.30;99.90;;;;;;5072526;28;20295;-69
2021/10/04 11:57:41;;;;;;;2.50;1.00;;;15.30;99.90;;;;;;5072052;28;20648;-69
2021/10/04 12:00:12;;;;;;;1.02;0.82;;;15.30;99.90;;;;;;5072295;28;20216;-69
2021/10/04 12:02:41;;;;;;;1.92;0.90;;;15.40;99.90;;;;;;5072318;28;20621;-67
2021/10/04 12:05:15;;;;;;;1.20;0.85;;;15.50;99.90;;;;;;5072215;28;20549;-70
2021/10/04 12:08:01;;;;;;;1.60;0.80;;;15.50;99.90;;;;;;5072085;28;20592;-69
2021/10/04 12:10:39;;;;;;;1.67;0.90;;;15.70;99.90;;;;;;5072052;28;20272;-68
2021/10/04 12:13:11;;;;;;;1.55;0.88;;;15.60;99.90;;;;;;5071626;28;20651;-69
2021/10/04 12:15:40;;;;;;;1.20;0.80;;;15.50;99.90;;;;;;5072348;28;20255;-68
2021/10/04 12:18:12;;;;;;;1.10;0.80;;;15.60;99.90;;;;;;5072127;28;20223;-68
2021/10/04 12:20:40;;;;;;;1.30;1.05;;;15.60;99.90;;;;;;5072220;28;20204;-69
2021/10/04 12:23:17;;;;;;;2.17;1.30;;;15.60;99.90;;;;;;5071644;28;20612;-69
2021/10/04 12:25:46;;;;;;;3.88;1.30;;;15.60;99.90;;;;;;5072009;28;20196;-69
2021/10/04 12:28:19;;;;;;;3.65;1.23;;;15.50;99.90;;;;;;5071658;28;20640;-68
2021/10/04 12:30:49;;;;;;;1.70;1.20;;;15.30;99.90;;;;;;5071786;28;20181;-68
2021/10/04 12:33:19;;;;;;;1.58;1.13;;;15.40;99.90;;;;;;5071858;28;20243;-69
2021/10/04 12:35:48;;;;;;;1.40;1.10;;;15.50;99.90;;;;;;5071526;28;20251;-68
2021/10/04 12:38:17;;;;;;;1.42;1.13;;;15.50;99.90;;;;;;5074289;28;20199;-68
2021/10/04 12:40:47;;;;;;;2.67;1.23;;;15.60;99.90;;;;;;5075702;28;20221;-68
2021/10/04 12:43:24;;;;;;;1.90;1.63;;;15.80;99.90;;;;;;5075546;28;20188;-67
2021/10/04 12:45:57;;;;;;;1.33;1.23;;;15.80;99.90;;;;;;5075579;28;20189;-68
2021/10/04 12:48:27;;;;;;;3.15;1.30;;;15.90;99.90;;;;;;5075087;28;20659;-70
2021/10/04 12:51:07;;;;;;;2.38;1.40;;;16.00;99.90;;;;;;5075330;28;20232;-69
2021/10/04 12:53:44;;;;;;;1.52;1.42;;;16.00;99.90;;;;;;5075362;28;20272;-69
2021/10/04 12:56:12;;;;;;;3.03;1.70;;;16.00;99.90;;;;;;5075438;28;20191;-67
2021/10/04 12:58:41;;;;;;;2.40;1.50;;;16.00;99.90;;;;;;5075188;28;20230;-69
2021/10/04 13:01:13;;;;;;;2.30;1.30;;;16.10;99.90;;;;;;5075347;28;20300;-70
2021/10/04 13:03:55;;;;;;;2.60;1.60;;;16.20;99.90;;;;;;5075279;28;20254;-69